Time;durP1;ratioP1;P1;durP2;ratioP2;P2;SDS_P1;SDS_P2;PMS_P1;PMS_P2;Temp;Humidity;BMP_temperature;BMP_pressure;BME280_temperature;BME280_humidity;BME280_pressure;Samples;Min_cycle;Max_cycle;Signal;HPM_P1;HPM_P2
2021/06/15 00:02:18;;;;;;;1.70;1.60;;;25.00;36.20;;;;;;4990345;28;20235;-42
2021/06/15 00:04:44;;;;;;;2.17;1.70;;;25.00;36.20;;;;;;4992022;28;20678;-44
2021/06/15 00:07:10;;;;;;;2.42;1.60;;;25.00;36.20;;;;;;4991525;28;20504;-38
2021/06/15 00:09:37;;;;;;;1.70;1.60;;;25.00;36.20;;;;;;4991837;28;20310;-39
2021/06/15 00:12:08;;;;;;;1.73;1.63;;;25.00;36.30;;;;;;4991164;28;20314;-41
2021/06/15 00:14:34;;;;;;;1.83;1.50;;;25.00;36.30;;;;;;4991199;28;20271;-44
2021/06/15 00:17:01;;;;;;;1.58;1.40;;;25.00;36.30;;;;;;4990894;28;20210;-51
2021/06/15 00:19:27;;;;;;;1.67;1.58;;;25.00;36.30;;;;;;4991526;28;20234;-45
2021/06/15 00:21:53;;;;;;;2.30;1.55;;;25.00;36.30;;;;;;4989844;28;20649;-38
2021/06/15 00:24:20;;;;;;;1.58;1.30;;;25.00;36.30;;;;;;4991594;28;20292;-47
2021/06/15 00:26:46;;;;;;;2.05;1.52;;;25.00;36.30;;;;;;4981935;28;20223;-42
2021/06/15 00:29:13;;;;;;;1.70;1.60;;;25.00;36.30;;;;;;4989854;28;20220;-45
2021/06/15 00:31:39;;;;;;;1.40;1.30;;;25.00;36.40;;;;;;4988484;28;20214;-45
2021/06/15 00:34:06;;;;;;;1.92;1.83;;;25.00;36.40;;;;;;4986759;28;20318;-40
2021/06/15 00:36:32;;;;;;;1.85;1.70;;;25.00;36.40;;;;;;4991119;28;20204;-51
2021/06/15 00:38:58;;;;;;;1.92;1.48;;;25.00;36.40;;;;;;4990770;28;20237;-41
2021/06/15 00:41:25;;;;;;;2.28;1.70;;;25.00;36.40;;;;;;4985604;28;20200;-44
2021/06/15 00:43:51;;;;;;;2.17;1.70;;;25.00;36.40;;;;;;4976509;28;20208;-40
2021/06/15 00:46:18;;;;;;;1.60;1.50;;;25.00;36.40;;;;;;4989827;28;20211;-39
2021/06/15 00:48:44;;;;;;;1.40;1.30;;;25.00;36.50;;;;;;4987026;28;20224;-40
2021/06/15 00:51:11;;;;;;;1.67;1.58;;;25.00;36.50;;;;;;4989616;28;20214;-39
2021/06/15 00:53:37;;;;;;;2.50;1.67;;;25.00;36.50;;;;;;4990244;28;20715;-43
2021/06/15 00:56:04;;;;;;;1.60;1.50;;;25.00;36.50;;;;;;4990250;28;20644;-41
2021/06/15 00:58:30;;;;;;;1.55;1.45;;;25.00;36.50;;;;;;4987848;28;20215;-40
2021/06/15 01:00:56;;;;;;;1.60;1.50;;;25.00;36.50;;;;;;4989848;28;20207;-40
2021/06/15 01:03:23;;;;;;;1.58;1.35;;;25.00;36.60;;;;;;4990065;28;20208;-43
2021/06/15 01:05:49;;;;;;;1.33;1.20;;;25.00;36.60;;;;;;4974602;28;20206;-41
2021/06/15 01:08:16;;;;;;;1.55;1.45;;;25.00;36.60;;;;;;4990387;28;20224;-41
2021/06/15 01:10:42;;;;;;;1.33;1.23;;;25.00;36.70;;;;;;4990328;28;20202;-46
2021/06/15 01:13:09;;;;;;;1.60;1.50;;;25.00;37.30;;;;;;4990135;28;20318;-51
2021/06/15 01:15:36;;;;;;;2.05;1.40;;;25.00;36.70;;;;;;4990569;28;20295;-50
2021/06/15 01:18:02;;;;;;;1.60;1.50;;;25.00;36.70;;;;;;4989013;28;20220;-40
2021/06/15 01:20:28;;;;;;;1.50;1.40;;;25.00;36.70;;;;;;4986393;28;20203;-41
2021/06/15 01:22:55;;;;;;;1.40;1.27;;;25.00;36.80;;;;;;4979996;28;20665;-42
2021/06/15 01:25:21;;;;;;;1.52;1.42;;;25.00;36.80;;;;;;4991536;28;20211;-38
2021/06/15 01:27:48;;;;;;;1.58;1.40;;;25.00;36.80;;;;;;4989867;28;20226;-38
2021/06/15 01:30:14;;;;;;;1.42;1.30;;;25.00;36.80;;;;;;4988601;28;20668;-44
2021/06/15 01:32:41;;;;;;;1.50;1.40;;;25.00;36.90;;;;;;4989340;28;20706;-44
2021/06/15 01:35:07;;;;;;;1.77;1.50;;;25.00;36.90;;;;;;4994022;28;20195;-40
2021/06/15 01:37:34;;;;;;;1.50;1.40;;;25.00;36.90;;;;;;4994411;28;20237;-41
2021/06/15 01:40:00;;;;;;;1.63;1.48;;;25.00;36.90;;;;;;4992543;28;20199;-38
2021/06/15 01:42:26;;;;;;;1.38;1.27;;;25.00;36.90;;;;;;4993697;28;20208;-38
2021/06/15 01:44:53;;;;;;;1.60;1.50;;;25.00;36.80;;;;;;4993272;28;20295;-40
2021/06/15 01:47:19;;;;;;;1.85;1.55;;;25.00;36.90;;;;;;4981826;28;20687;-45
2021/06/15 01:49:46;;;;;;;1.98;1.60;;;25.00;37.00;;;;;;4994290;28;20690;-39
2021/06/15 01:52:12;;;;;;;1.50;1.40;;;25.00;37.00;;;;;;4993696;28;20861;-39
2021/06/15 01:54:39;;;;;;;4.05;1.60;;;25.00;36.90;;;;;;4992185;28;20673;-39
2021/06/15 01:57:05;;;;;;;1.77;1.30;;;25.00;37.00;;;;;;4992515;28;20206;-39
2021/06/15 01:59:32;;;;;;;1.50;1.40;;;25.00;37.00;;;;;;4992912;28;20219;-49
2021/06/15 02:01:58;;;;;;;2.30;1.30;;;25.00;37.00;;;;;;4993053;28;20210;-38
2021/06/15 02:04:25;;;;;;;1.60;1.50;;;25.00;36.90;;;;;;4987573;28;20671;-40
2021/06/15 02:06:51;;;;;;;1.60;1.40;;;25.00;36.90;;;;;;4993853;28;20619;-38
2021/06/15 02:09:17;;;;;;;1.60;1.50;;;25.00;37.00;;;;;;4993264;28;20715;-38
2021/06/15 02:11:44;;;;;;;2.53;1.58;;;24.90;37.00;;;;;;4993542;28;20671;-39
2021/06/15 02:14:17;;;;;;;1.70;1.35;;;25.00;37.80;;;;;;4993415;28;20696;-38
2021/06/15 02:16:44;;;;;;;2.33;1.40;;;25.00;37.00;;;;;;4985648;28;20702;-41
2021/06/15 02:19:10;;;;;;;1.73;1.40;;;25.00;37.10;;;;;;4992019;28;20729;-39
2021/06/15 02:21:36;;;;;;;1.90;1.60;;;25.00;37.10;;;;;;4993045;28;20680;-38
2021/06/15 02:24:03;;;;;;;1.40;1.30;;;25.00;37.20;;;;;;4992811;28;20680;-42
2021/06/15 02:26:29;;;;;;;1.38;1.27;;;25.00;37.20;;;;;;4994082;28;20291;-42
2021/06/15 02:28:56;;;;;;;2.92;1.55;;;25.00;37.10;;;;;;4992323;28;20242;-41
2021/06/15 02:31:22;;;;;;;1.40;1.30;;;25.00;37.10;;;;;;4992068;28;20238;-38
2021/06/15 02:33:49;;;;;;;1.40;1.30;;;24.90;37.00;;;;;;4981692;28;20314;-39
2021/06/15 02:36:15;;;;;;;1.50;1.40;;;25.00;37.10;;;;;;4993099;28;20200;-41
2021/06/15 02:38:42;;;;;;;1.40;1.30;;;25.00;37.10;;;;;;4992319;28;20230;-44
2021/06/15 02:41:08;;;;;;;1.40;1.30;;;24.90;37.70;;;;;;4990776;28;20196;-44
2021/06/15 02:43:35;;;;;;;1.52;1.42;;;24.90;37.00;;;;;;4988887;28;20204;-50
2021/06/15 02:46:01;;;;;;;1.60;1.50;;;24.90;37.00;;;;;;4992510;28;20290;-45
2021/06/15 02:48:27;;;;;;;1.80;1.65;;;24.90;37.00;;;;;;4991645;28;20303;-46
2021/06/15 02:50:54;;;;;;;1.33;1.23;;;24.90;36.90;;;;;;4993341;28;20211;-45
2021/06/15 02:53:20;;;;;;;1.60;1.50;;;25.00;37.00;;;;;;4991209;28;20293;-47
2021/06/15 02:55:47;;;;;;;1.38;1.27;;;25.00;37.00;;;;;;4992235;28;20200;-39
2021/06/15 02:58:13;;;;;;;1.50;1.40;;;24.90;36.90;;;;;;4992913;28;20311;-38
2021/06/15 03:00:40;;;;;;;1.50;1.33;;;24.90;36.90;;;;;;4991611;28;20200;-40
2021/06/15 03:03:06;;;;;;;1.77;1.60;;;24.90;36.90;;;;;;4993620;28;20239;-38
2021/06/15 03:05:33;;;;;;;1.50;1.40;;;24.90;36.90;;;;;;4991643;28;20207;-48
2021/06/15 03:07:59;;;;;;;1.50;1.40;;;24.90;37.00;;;;;;4992162;28;20224;-49
2021/06/15 03:10:26;;;;;;;1.60;1.50;;;24.90;36.90;;;;;;4973820;28;20244;-47
2021/06/15 03:12:52;;;;;;;1.52;1.42;;;24.90;36.90;;;;;;4978492;28;20729;-38
2021/06/15 03:15:20;;;;;;;1.55;1.35;;;24.90;36.90;;;;;;4993256;28;20290;-39
2021/06/15 03:17:46;;;;;;;1.60;1.50;;;24.90;36.90;;;;;;4991622;28;20259;-38
2021/06/15 03:20:13;;;;;;;1.67;1.40;;;24.90;36.90;;;;;;4991775;28;20214;-39
2021/06/15 03:22:39;;;;;;;1.38;1.27;;;24.90;36.90;;;;;;4991543;28;20196;-48
2021/06/15 03:25:05;;;;;;;1.33;1.23;;;24.90;36.80;;;;;;4993101;28;20204;-49
2021/06/15 03:27:32;;;;;;;2.10;1.50;;;24.90;36.80;;;;;;4992421;28;20228;-48
2021/06/15 03:29:58;;;;;;;1.10;1.10;;;24.90;36.90;;;;;;4992303;28;20291;-48
2021/06/15 03:32:25;;;;;;;1.85;1.42;;;24.90;36.90;;;;;;4991984;28;20208;-50
2021/06/15 03:34:51;;;;;;;1.38;1.27;;;24.90;36.90;;;;;;4985711;28;20207;-47
2021/06/15 03:37:18;;;;;;;1.33;1.23;;;24.90;36.90;;;;;;4992272;28;20228;-45
2021/06/15 03:39:44;;;;;;;1.52;1.42;;;24.90;36.80;;;;;;4991903;28;20202;-49
2021/06/15 03:42:10;;;;;;;2.28;1.50;;;24.90;36.90;;;;;;4991590;28;20207;-43
2021/06/15 03:44:37;;;;;;;1.50;1.40;;;24.90;36.80;;;;;;4992112;28;20208;-48
2021/06/15 03:47:03;;;;;;;1.40;1.30;;;24.90;36.90;;;;;;4991923;28;20208;-42
2021/06/15 03:49:30;;;;;;;1.48;1.38;;;24.90;36.90;;;;;;4992653;28;20203;-41
2021/06/15 03:51:56;;;;;;;1.63;1.52;;;24.90;36.90;;;;;;4992265;28;20208;-52
2021/06/15 03:54:23;;;;;;;1.40;1.30;;;24.90;36.90;;;;;;4991286;28;20239;-41
2021/06/15 03:56:49;;;;;;;2.28;1.63;;;24.90;36.90;;;;;;4990636;28;20214;-47
2021/06/15 03:59:16;;;;;;;1.50;1.40;;;24.90;36.90;;;;;;4990693;28;20644;-40
2021/06/15 04:01:42;;;;;;;1.65;1.55;;;24.90;36.90;;;;;;4991109;28;20632;-43
2021/06/15 04:04:09;;;;;;;1.40;1.30;;;24.90;36.90;;;;;;4992403;28;20290;-41
2021/06/15 04:06:36;;;;;;;1.65;1.30;;;24.90;36.90;;;;;;4991388;28;20211;-39
2021/06/15 04:09:04;;;;;;;1.60;1.50;;;24.90;36.90;;;;;;4991459;28;20305;-46
2021/06/15 04:11:31;;;;;;;2.42;1.50;;;24.90;36.90;;;;;;4989047;28;20204;-46
2021/06/15 04:13:57;;;;;;;1.38;1.27;;;24.90;36.90;;;;;;4992474;28;20239;-48
2021/06/15 04:16:24;;;;;;;1.45;1.35;;;24.90;36.90;;;;;;4991665;28;20207;-40
2021/06/15 04:18:50;;;;;;;1.50;1.40;;;24.90;36.80;;;;;;4990668;28;20224;-40
2021/06/15 04:21:17;;;;;;;1.50;1.40;;;24.90;36.90;;;;;;4990431;28;20295;-41
2021/06/15 04:23:43;;;;;;;1.77;1.50;;;24.90;36.90;;;;;;4991435;28;20223;-48
2021/06/15 04:26:10;;;;;;;1.75;1.45;;;24.90;36.90;;;;;;4991861;28;20202;-46
2021/06/15 04:28:36;;;;;;;1.50;1.40;;;24.90;36.90;;;;;;4991238;28;20232;-39
2021/06/15 04:31:03;;;;;;;1.88;1.52;;;24.90;37.00;;;;;;4990331;28;20653;-43
2021/06/15 04:33:29;;;;;;;2.17;1.40;;;24.90;36.90;;;;;;4989486;28;20483;-38
2021/06/15 04:35:56;;;;;;;1.50;1.40;;;24.90;36.90;;;;;;4974620;28;20209;-38
2021/06/15 04:38:23;;;;;;;1.40;1.30;;;24.90;36.90;;;;;;4990953;28;20230;-40
2021/06/15 04:40:49;;;;;;;1.63;1.40;;;24.90;36.90;;;;;;4990865;28;20225;-40
2021/06/15 04:43:16;;;;;;;1.38;1.27;;;24.90;37.00;;;;;;4990275;28;20218;-39
2021/06/15 04:45:42;;;;;;;1.60;1.50;;;24.90;37.00;;;;;;4991723;28;20226;-42
2021/06/15 04:48:08;;;;;;;1.40;1.30;;;24.90;36.90;;;;;;4990886;28;20235;-38
2021/06/15 04:50:35;;;;;;;1.60;1.50;;;24.90;36.90;;;;;;4990993;28;20222;-43
2021/06/15 04:53:03;;;;;;;1.55;1.33;;;25.00;37.00;;;;;;4990959;28;20295;-41
2021/06/15 04:55:29;;;;;;;1.40;1.30;;;24.90;36.90;;;;;;4971237;28;20254;-43
2021/06/15 04:57:56;;;;;;;1.40;1.30;;;24.90;37.00;;;;;;4971438;28;20715;-39
2021/06/15 05:00:22;;;;;;;1.60;1.50;;;24.90;37.20;;;;;;4988490;28;20672;-38
2021/06/15 05:02:48;;;;;;;1.50;1.40;;;24.90;37.20;;;;;;4990926;28;20207;-47
2021/06/15 05:05:15;;;;;;;1.80;1.70;;;24.90;37.20;;;;;;4989586;28;20317;-39
2021/06/15 05:07:41;;;;;;;1.40;1.30;;;24.90;37.30;;;;;;4991437;28;20321;-42
2021/06/15 05:10:08;;;;;;;1.50;1.40;;;24.90;37.20;;;;;;4989705;28;20287;-40
2021/06/15 05:12:35;;;;;;;1.80;1.60;;;24.90;37.20;;;;;;4989635;28;20222;-54
2021/06/15 05:15:01;;;;;;;1.40;1.30;;;24.90;37.30;;;;;;4991321;28;20653;-37
2021/06/15 05:17:28;;;;;;;1.92;1.60;;;24.90;37.30;;;;;;4989469;28;20652;-43
2021/06/15 05:19:55;;;;;;;1.42;1.25;;;24.90;37.20;;;;;;4990492;28;20208;-42
2021/06/15 05:22:21;;;;;;;1.60;1.50;;;24.90;37.30;;;;;;4989280;28;20230;-47
2021/06/15 05:24:48;;;;;;;1.50;1.40;;;24.90;37.30;;;;;;4990392;28;20210;-38
2021/06/15 05:27:14;;;;;;;1.83;1.40;;;24.90;37.20;;;;;;4990505;28;20302;-41
2021/06/15 05:29:41;;;;;;;1.23;1.13;;;24.90;37.20;;;;;;4990886;28;20214;-38
2021/06/15 05:32:08;;;;;;;1.88;1.65;;;24.90;37.30;;;;;;4989301;28;20206;-40
2021/06/15 05:34:34;;;;;;;1.38;1.25;;;24.90;37.20;;;;;;4990923;28;20646;-38
2021/06/15 05:37:01;;;;;;;1.38;1.27;;;24.90;37.20;;;;;;4990442;28;20608;-46
2021/06/15 05:39:27;;;;;;;1.48;1.38;;;24.90;37.20;;;;;;4989851;28;20292;-42
2021/06/15 05:41:53;;;;;;;1.70;1.60;;;24.90;37.30;;;;;;4988200;28;20214;-44
2021/06/15 05:44:20;;;;;;;1.35;1.25;;;24.90;37.30;;;;;;4989963;28;20204;-43
2021/06/15 05:46:46;;;;;;;1.48;1.38;;;24.90;37.30;;;;;;4989980;28;20220;-46
2021/06/15 05:49:13;;;;;;;2.05;1.50;;;24.90;37.30;;;;;;4982849;28;20196;-38
2021/06/15 05:51:39;;;;;;;2.42;1.42;;;24.90;37.50;;;;;;4985392;28;20200;-50
2021/06/15 05:54:06;;;;;;;1.40;1.30;;;24.90;37.60;;;;;;4989786;28;20231;-38
2021/06/15 05:56:32;;;;;;;2.72;1.40;;;24.90;37.60;;;;;;4988940;28;20290;-42
2021/06/15 05:58:59;;;;;;;2.08;1.52;;;24.90;37.60;;;;;;4991102;28;20692;-39
2021/06/15 06:01:26;;;;;;;2.20;1.50;;;24.90;37.70;;;;;;4989527;28;20609;-42
2021/06/15 06:03:58;;;;;;;1.55;1.40;;;24.90;37.70;;;;;;4990551;28;20215;-45
2021/06/15 06:09:09;;;;;;;1.73;1.38;;;24.90;37.80;;;;;;4990444;28;20769;-45
2021/06/15 06:11:35;;;;;;;1.67;1.30;;;24.90;37.90;;;;;;4988820;28;20581;-45
2021/06/15 06:14:02;;;;;;;2.95;1.85;;;24.90;38.00;;;;;;4986794;28;20231;-39
2021/06/15 06:16:28;;;;;;;1.75;1.50;;;24.90;38.00;;;;;;4990016;28;20294;-46
2021/06/15 06:18:55;;;;;;;1.88;1.58;;;24.90;38.00;;;;;;4990761;28;20207;-48
2021/06/15 06:21:21;;;;;;;3.08;1.70;;;24.90;38.00;;;;;;4991617;28;20215;-50
2021/06/15 06:23:48;;;;;;;2.03;1.40;;;24.90;38.10;;;;;;4993772;28;20203;-49
2021/06/15 06:26:14;;;;;;;1.75;1.38;;;24.90;38.10;;;;;;4991494;28;20214;-40
2021/06/15 06:28:40;;;;;;;2.40;1.50;;;24.90;38.80;;;;;;4992947;28;20570;-48
2021/06/15 06:31:07;;;;;;;1.77;1.40;;;24.90;38.20;;;;;;4993670;28;20640;-40
2021/06/15 06:33:34;;;;;;;3.03;1.90;;;24.90;38.20;;;;;;4989303;28;20589;-43
2021/06/15 06:36:00;;;;;;;3.25;1.50;;;24.90;38.20;;;;;;4980906;28;20204;-39
2021/06/15 06:38:27;;;;;;;2.75;1.48;;;24.90;38.20;;;;;;4988485;28;20233;-46
2021/06/15 06:40:53;;;;;;;2.00;1.63;;;24.90;38.20;;;;;;4992811;28;20293;-44
2021/06/15 06:43:20;;;;;;;3.53;1.50;;;24.90;38.30;;;;;;4991395;28;20210;-47
2021/06/15 06:45:46;;;;;;;2.95;1.50;;;24.90;38.30;;;;;;4993642;28;20318;-41
2021/06/15 06:48:12;;;;;;;1.50;1.30;;;24.90;38.30;;;;;;4992562;28;20220;-39
2021/06/15 06:50:39;;;;;;;1.67;1.58;;;25.00;38.40;;;;;;4993117;28;20199;-40
2021/06/15 06:53:05;;;;;;;3.55;1.60;;;25.00;38.40;;;;;;4988443;28;20206;-40
2021/06/15 06:55:33;;;;;;;2.38;1.35;;;25.00;39.40;;;;;;4991130;28;20235;-49
2021/06/15 06:58:00;;;;;;;10.32;2.53;;;25.00;38.50;;;;;;4991196;28;20888;-42
2021/06/15 07:00:26;;;;;;;7.32;2.15;;;25.10;38.70;;;;;;4992672;28;20200;-42
2021/06/15 07:02:53;;;;;;;5.18;1.65;;;25.10;38.70;;;;;;5000279;28;20208;-38
2021/06/15 07:05:19;;;;;;;5.82;1.58;;;25.10;38.60;;;;;;4992629;28;20704;-41
2021/06/15 07:07:46;;;;;;;8.65;1.90;;;25.10;39.00;;;;;;4992335;28;20585;-42
2021/06/15 07:10:12;;;;;;;3.13;1.75;;;25.10;38.60;;;;;;4993228;28;20570;-41
2021/06/15 07:12:39;;;;;;;5.43;1.92;;;25.10;38.30;;;;;;5000247;28;20587;-44
2021/06/15 07:15:05;;;;;;;4.18;1.90;;;25.10;38.30;;;;;;4992407;28;20628;-41
2021/06/15 07:17:31;;;;;;;6.00;2.40;;;25.10;38.40;;;;;;4991552;28;20551;-41
2021/06/15 07:19:58;;;;;;;3.75;2.10;;;25.10;39.60;;;;;;4996324;28;20722;-39
2021/06/15 07:22:24;;;;;;;13.25;2.22;;;25.20;39.10;;;;;;4998850;28;20500;-39
2021/06/15 07:24:51;;;;;;;4.22;2.30;;;25.20;39.30;;;;;;4990410;28;20245;-39
2021/06/15 07:27:17;;;;;;;9.57;2.70;;;25.20;40.30;;;;;;4993156;28;20224;-39
2021/06/15 07:29:44;;;;;;;5.18;2.10;;;25.20;40.20;;;;;;4990912;28;20231;-39
2021/06/15 07:32:10;;;;;;;4.30;2.10;;;25.10;40.20;;;;;;4991467;28;20671;-48
2021/06/15 07:34:37;;;;;;;5.68;2.80;;;25.10;40.00;;;;;;4988979;28;20846;-39
2021/06/15 07:37:03;;;;;;;7.32;2.92;;;25.10;39.70;;;;;;4992002;28;20259;-40
2021/06/15 07:39:30;;;;;;;12.73;3.00;;;25.20;39.90;;;;;;4991963;28;20196;-41
2021/06/15 07:41:56;;;;;;;9.90;3.38;;;25.20;39.90;;;;;;4990602;28;20292;-39
2021/06/15 07:44:23;;;;;;;15.25;4.22;;;25.20;40.60;;;;;;4992514;28;20203;-45
2021/06/15 07:46:49;;;;;;;11.07;3.65;;;25.00;38.70;;;;;;4992788;28;20227;-43
2021/06/15 07:49:16;;;;;;;7.57;3.45;;;24.00;33.20;;;;;;4991951;28;20203;-40
2021/06/15 07:51:42;;;;;;;8.30;3.40;;;23.90;36.40;;;;;;4991210;28;20323;-42
2021/06/15 07:54:08;;;;;;;5.25;3.25;;;24.30;35.70;;;;;;4991607;28;20228;-44
2021/06/15 07:56:35;;;;;;;5.68;2.72;;;24.30;35.80;;;;;;4996149;28;20215;-44
2021/06/15 07:59:01;;;;;;;5.00;2.50;;;24.60;36.30;;;;;;5008289;28;20208;-43
2021/06/15 08:01:28;;;;;;;5.60;3.00;;;24.80;36.50;;;;;;4992117;28;20216;-40
2021/06/15 08:03:54;;;;;;;3.63;2.53;;;24.90;37.60;;;;;;4996195;28;20199;-41
2021/06/15 08:06:21;;;;;;;6.63;2.88;;;24.90;37.90;;;;;;4993030;28;20216;-42
2021/06/15 08:08:47;;;;;;;7.10;2.45;;;25.00;38.20;;;;;;4996635;28;20226;-42
2021/06/15 08:11:13;;;;;;;4.95;3.10;;;25.00;38.00;;;;;;4990096;28;20210;-44
2021/06/15 08:13:40;;;;;;;5.30;3.10;;;25.00;38.30;;;;;;4989490;28;20255;-49
2021/06/15 08:16:06;;;;;;;6.10;2.60;;;25.10;39.00;;;;;;4987142;28;20220;-39
2021/06/15 08:18:33;;;;;;;8.93;2.88;;;25.10;39.00;;;;;;4989853;28;20200;-42
2021/06/15 08:20:59;;;;;;;7.22;3.00;;;25.10;39.00;;;;;;4987026;28;20298;-42
2021/06/15 08:23:26;;;;;;;4.15;2.50;;;25.10;39.00;;;;;;4990094;28;20204;-43
2021/06/15 08:25:52;;;;;;;4.65;2.75;;;25.20;39.10;;;;;;4993699;28;20326;-41
2021/06/15 08:28:18;;;;;;;3.50;2.33;;;25.20;39.40;;;;;;4990440;28;20203;-39
2021/06/15 08:30:45;;;;;;;3.75;2.70;;;25.20;39.60;;;;;;4991778;28;20208;-40
2021/06/15 08:33:11;;;;;;;4.28;2.80;;;25.20;39.60;;;;;;4983359;28;20214;-46
2021/06/15 08:35:38;;;;;;;4.93;2.60;;;25.20;39.10;;;;;;4988727;28;20744;-40
2021/06/15 08:38:04;;;;;;;5.75;3.55;;;25.20;39.30;;;;;;4992106;28;20646;-44
2021/06/15 08:40:31;;;;;;;5.10;2.88;;;25.20;39.10;;;;;;4993768;28;20715;-42
2021/06/15 08:42:57;;;;;;;4.40;2.83;;;25.20;39.10;;;;;;4988144;28;20200;-40
2021/06/15 08:45:24;;;;;;;4.18;2.55;;;25.20;39.10;;;;;;4985860;28;20227;-42
2021/06/15 08:47:51;;;;;;;4.65;2.85;;;25.10;39.50;;;;;;4989941;28;20208;-46
2021/06/15 08:50:18;;;;;;;5.78;2.20;;;25.10;39.00;;;;;;4988771;28;20234;-52
2021/06/15 08:52:44;;;;;;;2.88;1.98;;;25.10;39.00;;;;;;4991768;28;20196;-46
2021/06/15 08:55:11;;;;;;;3.00;2.22;;;25.10;39.00;;;;;;4981377;28;20796;-49
2021/06/15 08:57:37;;;;;;;4.53;3.05;;;25.10;39.30;;;;;;4987345;28;20696;-41
2021/06/15 09:00:04;;;;;;;4.80;2.80;;;25.10;39.30;;;;;;4985491;28;20251;-51
2021/06/15 09:02:30;;;;;;;3.47;2.63;;;25.10;39.70;;;;;;4986753;28;20751;-48
2021/06/15 09:04:57;;;;;;;3.50;2.28;;;25.10;39.70;;;;;;4980644;28;20215;-51
2021/06/15 09:07:23;;;;;;;3.95;2.67;;;25.10;39.00;;;;;;4987333;28;20605;-45
2021/06/15 09:09:49;;;;;;;3.63;2.78;;;25.20;39.10;;;;;;4988984;28;20678;-44
2021/06/15 09:12:16;;;;;;;3.97;2.35;;;25.20;39.10;;;;;;4990550;28;20664;-44
2021/06/15 09:14:42;;;;;;;3.92;2.63;;;25.20;39.40;;;;;;4991388;28;20609;-40
2021/06/15 09:17:09;;;;;;;3.47;2.05;;;25.10;39.40;;;;;;4990946;28;20601;-39
2021/06/15 09:19:35;;;;;;;4.28;2.53;;;25.10;39.50;;;;;;4990653;28;20520;-47
2021/06/15 09:22:02;;;;;;;5.75;2.50;;;25.10;39.40;;;;;;4990690;28;20208;-45
2021/06/15 09:24:28;;;;;;;3.63;2.45;;;25.10;39.50;;;;;;4988884;28;20215;-43
2021/06/15 09:26:55;;;;;;;5.13;2.60;;;25.10;39.50;;;;;;4990670;28;20310;-44
2021/06/15 09:29:21;;;;;;;4.82;2.38;;;25.10;39.60;;;;;;4990653;28;20222;-49
2021/06/15 09:31:47;;;;;;;3.70;2.28;;;25.10;39.80;;;;;;4990645;28;20204;-50
2021/06/15 09:34:14;;;;;;;3.78;2.60;;;25.10;39.60;;;;;;4989230;28;20204;-47
2021/06/15 09:36:40;;;;;;;3.30;2.22;;;25.10;39.80;;;;;;4988141;28;20223;-45
2021/06/15 09:39:07;;;;;;;2.90;2.40;;;25.10;39.80;;;;;;4987307;28;20567;-49
2021/06/15 09:41:33;;;;;;;4.25;2.92;;;25.10;40.00;;;;;;4988016;28;20668;-42
2021/06/15 09:44:00;;;;;;;3.97;2.60;;;25.20;39.80;;;;;;4991753;28;20254;-40
2021/06/15 09:46:26;;;;;;;4.55;2.30;;;25.20;40.40;;;;;;4992244;28;20227;-44
2021/06/15 09:48:53;;;;;;;4.63;2.25;;;25.30;39.80;;;;;;5004162;28;20213;-49
2021/06/15 09:51:21;;;;;;;4.35;2.80;;;25.30;40.20;;;;;;4986281;28;20196;-44
2021/06/15 09:53:51;;;;;;;5.15;2.70;;;25.30;39.70;;;;;;4989280;28;20203;-45
2021/06/15 09:56:17;;;;;;;5.38;2.80;;;25.40;42.00;;;;;;4992810;28;20290;-42
2021/06/15 09:58:44;;;;;;;9.65;3.08;;;25.30;40.50;;;;;;5003682;28;20202;-42
2021/06/15 10:01:10;;;;;;;5.30;2.65;;;25.30;41.30;;;;;;4991373;28;20248;-49
2021/06/15 10:03:37;;;;;;;4.80;2.53;;;25.30;40.60;;;;;;4992152;28;20200;-45
2021/06/15 10:06:03;;;;;;;2.88;2.15;;;25.30;40.90;;;;;;4979898;28;20228;-37
2021/06/15 10:08:29;;;;;;;5.22;2.45;;;25.30;40.30;;;;;;4992890;28;20210;-38
2021/06/15 10:10:56;;;;;;;2.78;2.00;;;25.20;40.00;;;;;;4993671;28;20212;-41
2021/06/15 10:13:22;;;;;;;6.55;2.28;;;25.20;39.90;;;;;;4987295;28;20230;-42
2021/06/15 10:15:49;;;;;;;5.78;2.40;;;25.30;39.90;;;;;;4982825;28;20242;-43
2021/06/15 10:18:15;;;;;;;5.28;2.30;;;25.30;39.90;;;;;;4994086;28;20196;-41
2021/06/15 10:20:42;;;;;;;2.65;1.92;;;25.30;39.80;;;;;;4993142;28;20200;-43
2021/06/15 10:23:08;;;;;;;2.75;2.45;;;25.30;39.80;;;;;;4992248;28;20204;-52
2021/06/15 10:25:34;;;;;;;4.07;2.40;;;25.30;40.00;;;;;;4993041;28;20233;-48
2021/06/15 10:28:01;;;;;;;4.85;2.33;;;25.30;39.80;;;;;;4993298;28;20299;-47
2021/06/15 10:30:27;;;;;;;3.47;2.25;;;25.30;40.70;;;;;;4991544;28;20210;-54
2021/06/15 10:32:54;;;;;;;4.93;2.15;;;25.30;40.70;;;;;;4991050;28;20212;-47
2021/06/15 10:35:20;;;;;;;2.70;2.45;;;25.30;40.60;;;;;;4988821;28;20238;-52
2021/06/15 10:37:47;;;;;;;3.33;2.13;;;25.30;40.50;;;;;;4989865;28;20212;-48
2021/06/15 10:40:13;;;;;;;3.45;2.35;;;25.30;40.20;;;;;;4991619;28;20204;-46
2021/06/15 10:42:40;;;;;;;6.40;2.55;;;25.30;40.60;;;;;;4984944;28;20228;-45
2021/06/15 10:45:06;;;;;;;5.07;3.00;;;25.30;40.90;;;;;;4987688;28;20219;-51
2021/06/15 10:47:33;;;;;;;4.20;2.13;;;25.30;40.70;;;;;;4993077;28;20232;-51
2021/06/15 10:49:59;;;;;;;4.32;2.67;;;25.30;40.40;;;;;;4977193;28;20204;-47
2021/06/15 10:52:25;;;;;;;5.65;2.50;;;25.30;40.40;;;;;;4991963;28;20199;-42
2021/06/15 10:54:52;;;;;;;3.13;2.20;;;25.30;40.30;;;;;;4991094;28;20227;-58
2021/06/15 10:57:18;;;;;;;2.55;2.28;;;25.30;40.40;;;;;;4991391;28;20295;-46
2021/06/15 10:59:45;;;;;;;3.45;2.45;;;25.30;40.20;;;;;;4992585;28;20207;-40
2021/06/15 11:02:11;;;;;;;3.25;2.20;;;25.30;40.50;;;;;;4992446;28;20210;-48
2021/06/15 11:04:38;;;;;;;3.03;2.55;;;25.30;40.30;;;;;;4987541;28;20219;-47
2021/06/15 11:07:04;;;;;;;3.28;2.22;;;25.30;40.20;;;;;;4988156;28;20204;-47
2021/06/15 11:09:33;;;;;;;3.78;2.08;;;25.30;40.10;;;;;;4980665;28;20196;-45
2021/06/15 11:12:00;;;;;;;2.90;1.90;;;25.30;40.20;;;;;;4991659;28;20326;-50
2021/06/15 11:14:27;;;;;;;3.00;2.15;;;25.20;40.00;;;;;;4990806;28;20220;-42
2021/06/15 11:16:55;;;;;;;2.72;2.22;;;25.20;40.10;;;;;;4991409;28;20204;-43
2021/06/15 11:19:22;;;;;;;3.65;2.30;;;25.30;40.20;;;;;;4990893;28;20212;-37
2021/06/15 11:21:48;;;;;;;3.65;1.88;;;25.30;40.10;;;;;;4989028;28;20204;-39
2021/06/15 11:24:15;;;;;;;3.83;2.10;;;25.30;40.50;;;;;;4992847;28;20224;-38
2021/06/15 11:26:41;;;;;;;3.55;2.10;;;25.30;40.20;;;;;;4993041;28;20298;-40
2021/06/15 11:29:07;;;;;;;3.53;2.15;;;25.30;40.30;;;;;;4992186;28;20200;-44
2021/06/15 11:31:34;;;;;;;2.50;2.15;;;25.30;40.10;;;;;;4988605;28;20212;-44
2021/06/15 11:34:00;;;;;;;3.58;2.10;;;25.30;40.00;;;;;;4981382;28;20223;-42
2021/06/15 11:36:27;;;;;;;2.47;2.10;;;25.30;40.10;;;;;;4992900;28;20272;-42
2021/06/15 11:38:54;;;;;;;3.92;2.40;;;25.30;40.10;;;;;;4992865;28;20218;-51
2021/06/15 11:41:20;;;;;;;5.28;2.53;;;25.30;39.90;;;;;;4989435;28;20571;-40
2021/06/15 11:43:47;;;;;;;4.20;2.08;;;25.30;39.80;;;;;;4991645;28;20234;-42
2021/06/15 11:46:14;;;;;;;2.40;2.20;;;25.30;39.80;;;;;;4992526;28;20211;-39
2021/06/15 11:48:43;;;;;;;4.95;2.13;;;25.30;39.70;;;;;;4991782;28;20625;-48
2021/06/15 11:51:09;;;;;;;5.30;2.33;;;25.30;39.60;;;;;;4991706;28;20238;-46
2021/06/15 11:53:37;;;;;;;3.38;1.98;;;25.30;39.40;;;;;;4990979;28;20754;-40
2021/06/15 11:56:04;;;;;;;3.22;2.30;;;25.30;39.40;;;;;;4992067;28;20242;-43
2021/06/15 11:58:30;;;;;;;2.33;1.95;;;25.30;39.30;;;;;;4985894;28;20279;-51
2021/06/15 12:00:56;;;;;;;7.18;2.55;;;25.30;39.20;;;;;;4985250;28;20212;-55
2021/06/15 12:03:23;;;;;;;6.93;3.05;;;25.30;39.20;;;;;;4990271;28;20218;-48
2021/06/15 12:05:49;;;;;;;8.98;3.28;;;25.30;39.20;;;;;;4986351;28;20220;-43
2021/06/15 12:08:16;;;;;;;7.50;3.20;;;25.30;39.20;;;;;;4989081;28;20222;-45
2021/06/15 12:10:42;;;;;;;8.35;3.08;;;25.30;39.20;;;;;;4987200;28;22010;-51
2021/06/15 12:13:09;;;;;;;7.32;2.90;;;25.30;39.20;;;;;;4987415;28;21989;-38
2021/06/15 12:15:35;;;;;;;7.25;2.83;;;25.30;39.50;;;;;;4990058;28;20231;-39
2021/06/15 12:18:02;;;;;;;10.30;3.08;;;25.30;39.60;;;;;;4991235;28;20221;-44
2021/06/15 12:20:28;;;;;;;8.65;3.05;;;25.30;39.90;;;;;;4989963;28;20577;-39
2021/06/15 12:22:55;;;;;;;7.68;2.88;;;25.30;39.70;;;;;;4979839;28;20212;-40
2021/06/15 12:25:21;;;;;;;7.80;2.50;;;25.30;39.90;;;;;;4991776;28;20707;-49
2021/06/15 12:27:48;;;;;;;7.22;2.42;;;25.30;39.70;;;;;;4991431;28;20299;-47
2021/06/15 12:30:14;;;;;;;7.05;2.72;;;25.30;39.80;;;;;;4990830;28;20200;-42
2021/06/15 12:32:41;;;;;;;8.95;3.17;;;25.30;39.90;;;;;;4990726;28;20226;-45
2021/06/15 12:35:07;;;;;;;7.28;3.53;;;25.30;39.80;;;;;;4990584;28;20314;-50
2021/06/15 12:37:34;;;;;;;9.15;2.83;;;25.30;39.70;;;;;;4986661;28;20219;-40
2021/06/15 12:40:00;;;;;;;5.38;2.70;;;25.30;39.80;;;;;;4988565;28;20216;-42
2021/06/15 12:42:27;;;;;;;5.90;2.58;;;25.30;39.80;;;;;;4980989;28;20343;-40
2021/06/15 12:44:53;;;;;;;5.18;2.47;;;25.30;39.80;;;;;;4983199;28;20219;-42